Time;durP1;ratioP1;P1;durP2;ratioP2;P2;SDS_P1;SDS_P2;PMS_P1;PMS_P2;Temp;Humidity;BMP_temperature;BMP_pressure;BME280_temperature;BME280_humidity;BME280_pressure;Samples;Min_cycle;Max_cycle;Signal;HPM_P1;HPM_P2
2022/08/02 00:01:42;;;;;;;4.00;1.25;;;29.60;99.90;;;;;;5007943;28;20201;-94
2022/08/02 00:04:14;;;;;;;1.40;1.30;;;29.70;99.90;;;;;;5017210;28;20226;-94
2022/08/02 00:06:57;;;;;;;1.85;1.20;;;29.90;99.90;;;;;;5013596;28;20210;-93
2022/08/02 00:09:29;;;;;;;2.35;1.00;;;29.90;99.90;;;;;;5017429;28;20206;-95
2022/08/02 00:12:03;;;;;;;1.10;1.00;;;30.00;99.90;;;;;;5014603;28;20217;-94
2022/08/02 00:14:34;;;;;;;3.40;1.33;;;30.20;99.90;;;;;;5017927;28;20229;-93
2022/08/02 00:17:15;;;;;;;1.92;1.20;;;29.70;99.90;;;;;;5036409;28;20225;-94
2022/08/02 00:19:50;;;;;;;2.00;1.10;;;29.20;99.90;;;;;;5037835;28;20278;-95
2022/08/02 00:22:25;;;;;;;2.07;1.17;;;29.30;99.90;;;;;;5031091;28;20194;-95
2022/08/02 00:24:56;;;;;;;2.97;1.05;;;29.30;99.90;;;;;;5014927;28;20237;-94
2022/08/02 00:27:38;;;;;;;2.08;1.80;;;29.20;99.90;;;;;;5011279;28;20230;-95
2022/08/02 00:33:12;;;;;;;4.30;1.20;;;29.70;99.90;;;;;;5008969;28;20259;-95
2022/08/02 00:36:08;;;;;;;1.45;1.30;;;29.80;99.90;;;;;;5010254;28;20209;-94
2022/08/02 00:38:41;;;;;;;3.03;1.30;;;29.90;99.90;;;;;;5015928;28;20195;-94
2022/08/02 00:41:17;;;;;;;4.03;1.48;;;29.60;99.90;;;;;;5014197;28;20281;-94
2022/08/02 00:43:54;;;;;;;3.35;1.20;;;29.50;99.90;;;;;;5016946;28;20229;-94
2022/08/02 00:49:25;;;;;;;2.80;1.27;;;29.40;99.90;;;;;;5017498;28;20200;-93
2022/08/02 00:52:10;;;;;;;2.47;1.27;;;29.30;99.90;;;;;;5013043;28;20206;-94
2022/08/02 00:54:42;;;;;;;1.17;1.10;;;29.20;99.90;;;;;;4998246;28;20201;-95
2022/08/02 00:57:14;;;;;;;4.28;1.10;;;29.10;99.90;;;;;;4998404;28;20191;-92
2022/08/02 00:59:57;;;;;;;1.60;0.97;;;29.30;99.90;;;;;;4997950;28;20245;-93
2022/08/02 01:02:29;;;;;;;2.40;1.00;;;29.40;99.90;;;;;;4990942;28;20242;-94
2022/08/02 01:05:08;;;;;;;1.23;1.10;;;29.30;99.90;;;;;;4988339;28;20219;-94
2022/08/02 01:07:40;;;;;;;4.63;1.30;;;29.40;99.90;;;;;;4986705;28;20245;-94
2022/08/02 01:10:12;;;;;;;1.35;1.25;;;29.50;99.90;;;;;;4984589;28;20207;-94
2022/08/02 01:12:46;;;;;;;2.40;1.30;;;29.50;99.90;;;;;;4991890;28;20187;-94
2022/08/02 01:15:20;;;;;;;3.03;1.20;;;29.60;99.90;;;;;;4988341;28;20242;-94
2022/08/02 01:18:12;;;;;;;2.97;1.33;;;30.20;99.90;;;;;;4989270;28;20229;-94
2022/08/02 01:21:09;;;;;;;1.75;1.25;;;30.60;99.90;;;;;;4983187;28;20289;-94
2022/08/02 01:24:02;;;;;;;2.67;1.05;;;31.00;99.90;;;;;;4981992;28;20215;-94
2022/08/02 01:26:44;;;;;;;1.52;1.05;;;30.70;99.90;;;;;;5000328;28;20213;-95
2022/08/02 01:29:35;;;;;;;1.52;1.10;;;30.30;99.90;;;;;;5006060;28;20233;-95
2022/08/02 01:32:11;;;;;;;3.00;1.67;;;30.00;99.90;;;;;;4999494;28;20655;-94
2022/08/02 01:34:49;;;;;;;4.22;1.20;;;30.60;99.90;;;;;;5000739;28;20217;-94
2022/08/02 01:37:23;;;;;;;3.40;1.00;;;31.20;99.90;;;;;;5001484;28;20206;-94
2022/08/02 01:39:59;;;;;;;2.75;1.20;;;31.20;99.90;;;;;;5000043;28;20233;-95
2022/08/02 01:42:31;;;;;;;3.40;1.10;;;31.40;99.90;;;;;;5003469;28;20273;-95
2022/08/02 01:45:32;;;;;;;1.48;1.35;;;31.30;99.90;;;;;;5007160;28;20241;-94
2022/08/02 01:48:25;;;;;;;1.73;1.20;;;31.60;99.90;;;;;;5012273;28;20236;-95
2022/08/02 01:50:59;;;;;;;3.33;1.45;;;31.60;99.90;;;;;;5277133;23;20244;-95
2022/08/02 01:56:20;;;;;;;3.13;2.08;;;31.00;99.90;;;;;;5054096;28;20219;-93
2022/08/02 01:58:59;;;;;;;7.47;3.20;;;30.60;99.90;;;;;;5055982;28;20212;-92
2022/08/02 02:01:33;;;;;;;2.90;1.40;;;30.00;99.90;;;;;;5218054;23;20235;-93
2022/08/02 02:04:08;;;;;;;6.88;1.95;;;29.50;99.90;;;;;;5001643;28;20222;-93
2022/08/02 02:06:41;;;;;;;1.83;1.10;;;29.00;99.90;;;;;;5008374;28;20218;-94
2022/08/02 02:09:15;;;;;;;0.83;0.83;;;28.60;99.90;;;;;;5003694;28;20207;-94
2022/08/02 02:11:51;;;;;;;2.13;1.13;;;28.30;99.90;;;;;;5006759;28;20233;-95
2022/08/02 02:17:43;;;;;;;2.17;1.20;;;27.10;99.90;;;;;;5013972;28;20258;-95
2022/08/02 02:26:47;;;;;;;1.27;1.20;;;26.50;99.90;;;;;;5011070;28;20222;-95
2022/08/02 02:29:26;;;;;;;1.63;1.20;;;26.40;99.90;;;;;;5010940;28;20201;-95
2022/08/02 02:32:02;;;;;;;3.80;1.30;;;26.30;99.90;;;;;;5011392;28;20202;-95
2022/08/02 02:34:39;;;;;;;1.10;1.03;;;26.20;99.90;;;;;;5009272;28;20229;-95
2022/08/02 02:37:40;;;;;;;4.37;1.40;;;26.20;99.90;;;;;;5013647;28;20214;-95
2022/08/02 02:40:50;;;;;;;1.70;1.40;;;26.10;99.90;;;;;;5017139;28;20205;-95
2022/08/02 02:43:29;;;;;;;1.40;1.30;;;25.90;99.90;;;;;;5017180;28;20210;-95
2022/08/02 02:48:54;;;;;;;1.43;1.00;;;25.90;99.90;;;;;;5033459;28;20221;-95
2022/08/02 02:54:24;;;;;;;1.60;1.03;;;25.70;99.90;;;;;;5020061;28;20190;-95
2022/08/02 02:57:07;;;;;;;2.20;1.30;;;25.70;99.90;;;;;;5014722;28;20214;-95
2022/08/02 02:59:44;;;;;;;1.67;1.40;;;25.60;99.90;;;;;;5012886;28;20267;-95
2022/08/02 03:02:22;;;;;;;2.33;1.10;;;25.50;99.90;;;;;;5010314;28;20230;-96
2022/08/02 03:07:56;;;;;;;1.77;0.87;;;25.40;99.90;;;;;;5014031;28;20199;-96
2022/08/02 03:10:29;;;;;;;1.27;0.87;;;25.40;99.90;;;;;;5011528;28;20202;-93
2022/08/02 03:13:04;;;;;;;0.90;0.80;;;25.30;99.90;;;;;;5010290;28;20198;-96
2022/08/02 03:15:43;;;;;;;3.30;0.80;;;25.20;99.90;;;;;;5011164;28;20209;-95
2022/08/02 03:18:33;;;;;;;1.93;0.90;;;25.20;99.90;;;;;;5005851;28;20312;-95
2022/08/02 03:21:12;;;;;;;2.67;0.90;;;25.20;99.90;;;;;;5011794;28;20230;-96
2022/08/02 03:23:45;;;;;;;1.77;0.90;;;25.10;99.90;;;;;;5009541;28;20228;-95
2022/08/02 03:26:24;;;;;;;1.17;0.90;;;25.00;99.90;;;;;;5011829;28;20210;-94
2022/08/02 03:28:59;;;;;;;0.80;0.80;;;25.00;99.90;;;;;;5012755;28;20211;-96
2022/08/02 03:31:44;;;;;;;0.80;0.80;;;24.80;99.90;;;;;;5006430;28;20520;-96
2022/08/02 03:34:16;;;;;;;1.37;1.00;;;24.80;99.90;;;;;;5012253;28;20225;-95
2022/08/02 03:39:44;;;;;;;1.80;1.00;;;24.60;99.90;;;;;;5014490;28;20198;-96
2022/08/02 03:48:40;;;;;;;3.17;1.20;;;24.40;99.90;;;;;;5014861;28;20278;-96
2022/08/02 03:51:13;;;;;;;1.33;1.20;;;24.30;99.90;;;;;;5003101;28;20218;-96
2022/08/02 03:59:46;;;;;;;1.53;1.20;;;24.00;99.90;;;;;;5010736;28;20282;-95
2022/08/02 04:05:22;;;;;;;2.27;1.63;;;23.90;99.90;;;;;;5011432;28;20232;-96
2022/08/02 04:07:54;;;;;;;1.83;1.73;;;23.80;99.90;;;;;;5011094;28;20572;-95
2022/08/02 04:13:47;;;;;;;1.80;1.70;;;23.60;99.90;;;;;;5012410;28;20212;-95
2022/08/02 04:29:56;;;;;;;2.13;2.00;;;23.20;99.90;;;;;;5029581;28;20285;-95
2022/08/02 04:35:40;;;;;;;3.47;1.83;;;22.90;99.90;;;;;;5034018;28;20228;-94
2022/08/02 04:38:14;;;;;;;2.57;1.87;;;22.70;99.90;;;;;;5028953;28;20217;-94
2022/08/02 04:40:55;;;;;;;2.57;2.30;;;22.50;99.90;;;;;;5026217;28;20696;-95
2022/08/02 04:43:31;;;;;;;2.70;2.10;;;22.50;99.90;;;;;;5023676;28;20213;-95
2022/08/02 04:46:05;;;;;;;2.13;1.90;;;22.40;99.90;;;;;;5017303;28;20214;-95
2022/08/02 04:48:37;;;;;;;3.07;2.00;;;22.40;99.90;;;;;;5018391;28;20213;-95
2022/08/02 04:59:52;;;;;;;1.63;1.53;;;22.10;99.90;;;;;;4999470;28;20690;-95
2022/08/02 05:02:29;;;;;;;3.57;2.13;;;22.10;99.90;;;;;;4997797;28;20269;-95
2022/08/02 05:05:00;;;;;;;2.57;2.17;;;22.10;99.90;;;;;;4997535;28;20210;-95
2022/08/02 05:07:39;;;;;;;2.80;2.30;;;21.90;99.90;;;;;;4997421;28;20210;-95
2022/08/02 05:10:20;;;;;;;3.50;2.00;;;21.90;99.90;;;;;;4997327;28;20210;-95
2022/08/02 05:12:51;;;;;;;3.13;1.97;;;21.80;99.90;;;;;;5003415;28;20206;-95
2022/08/02 05:15:22;;;;;;;2.43;2.10;;;21.60;99.90;;;;;;5024876;28;20205;-95
2022/08/02 05:17:57;;;;;;;2.90;2.37;;;21.60;99.90;;;;;;5054752;28;20212;-95
2022/08/02 05:20:29;;;;;;;3.70;2.07;;;21.50;99.90;;;;;;5056324;28;20211;-95
2022/08/02 05:23:02;;;;;;;2.90;2.17;;;21.40;99.90;;;;;;5048445;28;20213;-95
2022/08/02 05:25:34;;;;;;;4.53;2.00;;;21.40;99.90;;;;;;5040298;28;20229;-95
2022/08/02 05:34:31;;;;;;;2.03;1.60;;;21.30;99.90;;;;;;5035046;28;20216;-94
2022/08/02 05:37:04;;;;;;;5.67;2.20;;;21.20;99.90;;;;;;5034486;28;20272;-95
2022/08/02 05:39:50;;;;;;;2.13;1.70;;;21.00;99.90;;;;;;5033987;28;20217;-95
2022/08/02 05:45:38;;;;;;;2.13;1.93;;;20.80;99.90;;;;;;5027631;28;20216;-95
2022/08/02 05:48:11;;;;;;;3.13;1.80;;;20.70;99.90;;;;;;5020722;28;20304;-95
2022/08/02 05:50:50;;;;;;;1.90;1.70;;;20.70;99.90;;;;;;5021514;28;20198;-94
2022/08/02 05:53:29;;;;;;;2.40;1.73;;;20.70;99.90;;;;;;5020541;28;20235;-94
2022/08/02 05:56:11;;;;;;;3.73;1.70;;;20.50;99.90;;;;;;5021648;28;20230;-94
2022/08/02 05:58:59;;;;;;;2.77;2.00;;;20.30;99.90;;;;;;5034105;28;20205;-95
2022/08/02 06:01:36;;;;;;;2.63;1.87;;;20.10;99.90;;;;;;5037987;28;20197;-96
2022/08/02 06:04:20;;;;;;;2.20;1.73;;;19.80;99.90;;;;;;5040484;28;20224;-96
2022/08/02 06:06:59;;;;;;;1.90;1.57;;;19.90;99.90;;;;;;5039580;28;20252;-95
2022/08/02 06:09:32;;;;;;;3.20;1.43;;;19.80;99.90;;;;;;5039725;28;20232;-96
2022/08/02 06:12:06;;;;;;;3.23;2.10;;;19.70;99.90;;;;;;5037981;28;20508;-95
2022/08/02 06:14:39;;;;;;;2.10;1.77;;;19.60;99.90;;;;;;5039866;28;20205;-96
2022/08/02 06:17:16;;;;;;;1.43;1.20;;;19.60;99.90;;;;;;5349797;23;20208;-93
2022/08/02 06:22:43;;;;;;;4.57;1.90;;;19.40;99.90;;;;;;5321561;23;20281;-93
2022/08/02 06:25:16;;;;;;;3.90;1.83;;;19.20;99.90;;;;;;5023131;28;20256;-94
2022/08/02 06:28:08;;;;;;;3.67;2.10;;;19.10;99.90;;;;;;5022522;28;20289;-94
2022/08/02 06:30:41;;;;;;;2.57;1.90;;;19.00;99.90;;;;;;5023155;28;20205;-94
2022/08/02 06:33:14;;;;;;;3.13;1.90;;;19.10;99.90;;;;;;5021875;28;20221;-94
2022/08/02 06:35:51;;;;;;;2.43;1.80;;;18.90;99.90;;;;;;5021543;28;20624;-94
2022/08/02 06:38:30;;;;;;;3.20;2.30;;;18.80;99.90;;;;;;5023883;28;20210;-94
2022/08/02 06:41:08;;;;;;;4.07;2.00;;;18.80;99.90;;;;;;5008703;28;20222;-94
2022/08/02 06:43:52;;;;;;;2.87;2.30;;;18.70;99.90;;;;;;5002210;28;20288;-94
2022/08/02 06:46:23;;;;;;;2.17;1.70;;;18.80;99.90;;;;;;5009473;28;20212;-94
2022/08/02 06:49:19;;;;;;;3.23;1.87;;;18.80;99.90;;;;;;5016387;28;20214;-94
2022/08/02 06:51:50;;;;;;;2.57;1.90;;;18.70;99.90;;;;;;5018675;28;20186;-94
2022/08/02 06:54:26;;;;;;;2.33;2.00;;;18.60;99.90;;;;;;5038831;28;20224;-95
2022/08/02 06:56:57;;;;;;;2.47;2.00;;;18.60;99.90;;;;;;5038997;28;20258;-95
2022/08/02 07:02:14;;;;;;;2.97;2.20;;;18.50;99.90;;;;;;5025661;28;20217;-95
2022/08/02 07:04:45;;;;;;;2.87;2.20;;;18.50;99.90;;;;;;5020359;28;20226;-95
2022/08/02 07:07:17;;;;;;;3.77;1.90;;;18.50;99.90;;;;;;5021525;28;20194;-95
2022/08/02 07:09:56;;;;;;;2.93;2.20;;;18.50;99.90;;;;;;5022784;28;20279;-95
2022/08/02 07:12:32;;;;;;;2.10;1.90;;;18.50;99.90;;;;;;5020603;28;20198;-95
2022/08/02 07:15:15;;;;;;;2.30;1.97;;;18.40;99.90;;;;;;5022572;28;20213;-94
2022/08/02 07:17:47;;;;;;;1.83;1.73;;;18.30;99.90;;;;;;5019149;28;20210;-94
2022/08/02 07:20:20;;;;;;;2.73;1.80;;;18.00;99.90;;;;;;5018125;28;20210;-94
2022/08/02 07:22:52;;;;;;;2.30;2.10;;;17.90;99.90;;;;;;5019132;28;20574;-94
2022/08/02 07:25:26;;;;;;;2.00;1.60;;;17.90;99.90;;;;;;5019949;28;20233;-95
2022/08/02 07:28:17;;;;;;;1.70;1.60;;;17.80;99.90;;;;;;5020364;28;20202;-94
2022/08/02 07:30:54;;;;;;;3.60;2.00;;;17.60;99.90;;;;;;5017049;28;20295;-95
2022/08/02 07:33:26;;;;;;;2.63;2.00;;;17.60;99.90;;;;;;5019708;28;20209;-94
2022/08/02 07:36:15;;;;;;;2.97;2.10;;;17.60;99.90;;;;;;5020302;28;20279;-95
2022/08/02 07:38:56;;;;;;;2.70;1.90;;;17.70;99.90;;;;;;5166268;23;20272;-95
2022/08/02 07:41:30;;;;;;;2.20;2.00;;;17.50;99.90;;;;;;5034820;28;20197;-96
2022/08/02 07:44:03;;;;;;;2.30;1.80;;;17.60;99.90;;;;;;5037046;28;20218;-95
2022/08/02 07:46:35;;;;;;;2.10;1.93;;;17.50;99.90;;;;;;5038162;28;20204;-95
2022/08/02 07:49:07;;;;;;;2.40;2.20;;;17.50;99.90;;;;;;5038000;28;20200;-94
2022/08/02 07:51:41;;;;;;;2.10;1.90;;;17.50;99.90;;;;;;5035998;28;20218;-94
2022/08/02 07:54:14;;;;;;;2.20;2.00;;;17.50;99.90;;;;;;5020730;28;20217;-94
2022/08/02 07:56:48;;;;;;;2.67;2.33;;;17.40;99.90;;;;;;5018880;28;20214;-94
2022/08/02 07:59:27;;;;;;;3.27;2.47;;;17.40;99.90;;;;;;5020952;28;20214;-95
2022/08/02 08:01:59;;;;;;;2.87;2.40;;;17.40;99.90;;;;;;5017111;28;20248;-94
2022/08/02 08:04:30;;;;;;;2.40;2.20;;;17.40;99.90;;;;;;5018335;28;20292;-95
2022/08/02 08:07:04;;;;;;;3.67;2.20;;;17.40;99.90;;;;;;5019190;28;20213;-95
2022/08/02 08:09:38;;;;;;;2.77;2.47;;;17.40;99.90;;;;;;5017735;28;20646;-94
2022/08/02 08:12:28;;;;;;;3.57;2.57;;;17.40;99.90;;;;;;5022049;28;20205;-93
2022/08/02 08:15:12;;;;;;;2.40;2.03;;;17.40;99.90;;;;;;5023431;28;20286;-94
2022/08/02 08:17:44;;;;;;;2.77;2.20;;;17.50;99.90;;;;;;5017378;28;20720;-94
2022/08/02 08:20:15;;;;;;;3.03;2.20;;;17.40;99.90;;;;;;5018004;28;20654;-94
2022/08/02 08:22:46;;;;;;;2.87;2.43;;;17.40;99.90;;;;;;5017787;28;20263;-94
2022/08/02 08:25:18;;;;;;;3.07;2.30;;;17.50;99.90;;;;;;5017197;28;20233;-94
2022/08/02 08:27:53;;;;;;;2.40;2.20;;;17.60;99.90;;;;;;5027492;28;20284;-94
2022/08/02 08:33:22;;;;;;;4.70;2.97;;;17.50;99.90;;;;;;5017437;28;20676;-94
2022/08/02 08:35:54;;;;;;;2.90;2.40;;;17.40;99.90;;;;;;5017221;28;20236;-94
2022/08/02 08:38:26;;;;;;;3.83;2.83;;;17.50;99.90;;;;;;5019542;28;20682;-93
2022/08/02 08:40:57;;;;;;;4.70;2.93;;;17.40;99.90;;;;;;5017843;28;20222;-94
2022/08/02 08:43:30;;;;;;;3.00;2.60;;;17.40;99.90;;;;;;5016971;28;20237;-94
2022/08/02 08:46:02;;;;;;;3.03;2.73;;;17.50;99.90;;;;;;5015858;28;20213;-94
2022/08/02 08:48:38;;;;;;;3.63;2.87;;;17.30;99.90;;;;;;5026379;28;20210;-94
2022/08/02 08:51:25;;;;;;;2.90;2.70;;;17.20;99.90;;;;;;5026835;28;20216;-93
2022/08/02 08:54:01;;;;;;;5.47;3.20;;;17.10;99.90;;;;;;4999023;28;20349;-95
2022/08/02 08:56:35;;;;;;;3.63;3.23;;;17.10;99.90;;;;;;4997360;28;20224;-94
2022/08/02 08:59:09;;;;;;;4.70;3.43;;;17.10;99.90;;;;;;4998299;28;20272;-94
2022/08/02 09:01:41;;;;;;;7.30;3.10;;;17.20;99.90;;;;;;4997547;28;20214;-93
2022/08/02 09:04:20;;;;;;;3.90;2.80;;;17.20;99.90;;;;;;4997847;28;20666;-94
2022/08/02 09:06:52;;;;;;;4.83;3.10;;;17.20;99.90;;;;;;4998285;28;20273;-95
2022/08/02 09:09:23;;;;;;;3.17;2.67;;;17.30;99.90;;;;;;4998186;28;20685;-94
2022/08/02 09:12:13;;;;;;;3.43;2.70;;;17.30;99.90;;;;;;4997583;28;20336;-94
2022/08/02 09:14:48;;;;;;;4.83;3.27;;;17.30;99.90;;;;;;4998158;28;20210;-94
2022/08/02 09:17:21;;;;;;;4.23;3.27;;;17.20;99.90;;;;;;4998995;28;20210;-94
2022/08/02 09:20:09;;;;;;;5.23;3.33;;;17.20;99.90;;;;;;5001117;28;20226;-95
2022/08/02 09:22:40;;;;;;;5.53;3.50;;;17.20;99.90;;;;;;5005016;28;20186;-94
2022/08/02 09:25:17;;;;;;;5.00;3.37;;;17.00;99.90;;;;;;5015232;28;20230;-94
2022/08/02 09:27:50;;;;;;;6.00;3.20;;;17.00;99.90;;;;;;5030871;28;20201;-93
2022/08/02 09:30:24;;;;;;;3.67;3.33;;;17.10;99.90;;;;;;5029759;28;20241;-96
2022/08/02 09:32:56;;;;;;;3.87;3.47;;;17.10;99.90;;;;;;5023212;28;20209;-94
2022/08/02 09:35:36;;;;;;;5.17;3.80;;;17.10;99.90;;;;;;5022600;28;20213;-93
2022/08/02 09:38:27;;;;;;;3.33;3.03;;;17.20;99.90;;;;;;5018557;28;20300;-93
2022/08/02 09:40:59;;;;;;;3.37;3.10;;;17.10;99.90;;;;;;5017562;28;20237;-94
2022/08/02 09:43:39;;;;;;;5.13;3.20;;;17.00;99.90;;;;;;5016733;28;20233;-94
2022/08/02 09:46:36;;;;;;;5.07;3.70;;;17.00;99.90;;;;;;5015871;28;20229;-94
2022/08/02 09:49:10;;;;;;;4.47;3.00;;;17.10;99.90;;;;;;5016870;28;20217;-94
2022/08/02 09:51:49;;;;;;;4.37;3.27;;;17.10;99.90;;;;;;5015823;28;20296;-93
2022/08/02 09:54:22;;;;;;;3.83;2.67;;;17.20;99.90;;;;;;5016388;28;20287;-94
2022/08/02 09:56:55;;;;;;;5.60;3.07;;;17.10;99.90;;;;;;5016837;28;20252;-94
2022/08/02 09:59:28;;;;;;;3.30;3.00;;;17.00;99.90;;;;;;5019694;28;20198;-94
2022/08/02 10:02:10;;;;;;;4.37;3.40;;;16.90;99.90;;;;;;5015312;28;20702;-94
2022/08/02 10:04:46;;;;;;;5.13;3.17;;;16.80;99.90;;;;;;5016393;28;20296;-94
2022/08/02 10:07:23;;;;;;;5.00;3.37;;;16.80;99.90;;;;;;5017236;28;20217;-94
2022/08/02 10:09:54;;;;;;;5.93;3.10;;;16.90;99.90;;;;;;5020033;28;20244;-94
2022/08/02 10:12:28;;;;;;;5.63;3.10;;;17.00;99.90;;;;;;5018915;28;20214;-94
2022/08/02 10:15:01;;;;;;;4.77;2.77;;;17.10;99.90;;;;;;5019663;28;20316;-94
2022/08/02 10:17:34;;;;;;;4.37;2.90;;;17.20;99.90;;;;;;5019559;28;20214;-94
2022/08/02 10:20:08;;;;;;;4.20;3.07;;;17.10;99.90;;;;;;5019598;28;20267;-94
2022/08/02 10:22:41;;;;;;;3.53;3.00;;;17.10;99.90;;;;;;5009484;28;20214;-94
2022/08/02 10:25:14;;;;;;;3.77;2.87;;;17.10;99.90;;;;;;4999773;28;20214;-94
2022/08/02 10:27:45;;;;;;;3.70;3.20;;;17.10;99.90;;;;;;4999987;28;20207;-95
2022/08/02 10:30:37;;;;;;;3.77;2.90;;;17.00;99.90;;;;;;4998651;28;20261;-95
2022/08/02 10:33:14;;;;;;;5.10;2.60;;;17.10;99.90;;;;;;4998712;28;20643;-94
2022/08/02 10:35:48;;;;;;;6.57;3.00;;;16.90;99.90;;;;;;4998456;28;20252;-94
2022/08/02 10:38:38;;;;;;;5.27;2.87;;;17.00;99.90;;;;;;4999190;28;20221;-94
2022/08/02 10:41:09;;;;;;;5.33;3.10;;;17.00;99.90;;;;;;4997564;28;20214;-93
2022/08/02 10:43:48;;;;;;;5.27;2.97;;;17.00;99.90;;;;;;4998427;28;20264;-94
2022/08/02 10:46:36;;;;;;;4.03;2.70;;;17.00;99.90;;;;;;4997898;28;20217;-93
2022/08/02 10:49:14;;;;;;;3.00;2.30;;;17.00;99.90;;;;;;4998141;28;20214;-94
2022/08/02 10:52:09;;;;;;;3.37;2.70;;;16.90;99.90;;;;;;4997404;28;20301;-94
2022/08/02 10:54:43;;;;;;;3.47;2.20;;;16.80;99.90;;;;;;4997977;28;20246;-94
2022/08/02 10:57:21;;;;;;;3.43;2.30;;;16.80;99.90;;;;;;4998072;28;20298;-94
2022/08/02 10:59:56;;;;;;;2.23;2.03;;;16.60;99.90;;;;;;4999036;28;20202;-94
2022/08/02 11:02:42;;;;;;;2.87;2.40;;;16.60;99.90;;;;;;4998971;28;20240;-94
2022/08/02 11:05:18;;;;;;;3.20;2.40;;;16.60;99.90;;;;;;4998004;28;20252;-94
2022/08/02 11:07:50;;;;;;;3.70;2.40;;;16.70;99.90;;;;;;5000213;28;20217;-94
2022/08/02 11:10:38;;;;;;;3.53;2.13;;;16.60;99.90;;;;;;4998072;28;20273;-95
2022/08/02 11:13:14;;;;;;;3.47;2.40;;;16.70;99.90;;;;;;4999181;28;20210;-94
2022/08/02 11:15:55;;;;;;;2.43;2.23;;;16.70;99.90;;;;;;4999358;28;20244;-94
2022/08/02 11:19:03;;;;;;;4.10;2.40;;;16.60;99.90;;;;;;5000387;28;20238;-94
2022/08/02 11:21:38;;;;;;;2.50;2.30;;;16.60;99.90;;;;;;5000347;28;20214;-94
2022/08/02 11:24:30;;;;;;;5.00;2.70;;;16.50;99.90;;;;;;5018592;28;20239;-93
2022/08/02 11:27:02;;;;;;;3.43;2.43;;;16.40;99.90;;;;;;5017409;28;20209;-94
2022/08/02 11:29:37;;;;;;;3.30;2.40;;;16.50;99.90;;;;;;5017741;28;20267;-94
2022/08/02 11:32:10;;;;;;;3.73;2.30;;;16.60;99.90;;;;;;5017005;28;20729;-93
2022/08/02 11:34:44;;;;;;;2.83;2.03;;;16.60;99.90;;;;;;5017487;28;20585;-93
2022/08/02 11:37:29;;;;;;;2.70;2.17;;;16.60;99.90;;;;;;4939114;28;2296044;-93
2022/08/02 11:40:01;;;;;;;3.63;2.17;;;16.60;99.90;;;;;;5017961;28;20297;-93
2022/08/02 11:42:36;;;;;;;4.67;2.40;;;16.60;99.90;;;;;;5016784;28;20213;-96
2022/08/02 11:45:12;;;;;;;3.40;2.17;;;16.60;99.90;;;;;;5018984;28;20217;-95
2022/08/02 11:47:52;;;;;;;3.53;2.40;;;16.60;99.90;;;;;;5018142;28;20225;-93
2022/08/02 11:50:27;;;;;;;4.07;2.67;;;16.40;99.90;;;;;;5018441;28;20214;-93
2022/08/02 11:53:01;;;;;;;2.80;2.50;;;16.40;99.90;;;;;;5020876;28;20219;-94
2022/08/02 11:55:33;;;;;;;4.40;2.77;;;16.40;99.90;;;;;;5031272;28;20237;-94
2022/08/02 11:58:10;;;;;;;2.97;2.43;;;16.40;99.90;;;;;;5037031;28;20264;-95
2022/08/02 12:00:45;;;;;;;3.97;2.60;;;16.40;99.90;;;;;;5036206;28;20194;-94
2022/08/02 12:03:17;;;;;;;4.33;2.50;;;16.50;99.90;;;;;;5037631;28;20197;-94
2022/08/02 12:06:08;;;;;;;4.00;2.77;;;16.60;99.90;;;;;;5037081;28;20296;-94
2022/08/02 12:08:48;;;;;;;3.63;2.43;;;16.60;99.90;;;;;;5037645;28;20225;-94
2022/08/02 12:11:24;;;;;;;3.33;2.47;;;16.50;99.90;;;;;;5037325;28;20197;-94
2022/08/02 12:14:09;;;;;;;4.13;3.07;;;16.40;99.90;;;;;;5037786;28;20224;-94
2022/08/02 12:19:33;;;;;;;5.97;2.87;;;16.50;99.90;;;;;;5037326;28;20240;-94
2022/08/02 12:22:14;;;;;;;7.63;3.10;;;16.50;99.90;;;;;;5034503;28;20677;-93
2022/08/02 12:24:50;;;;;;;7.20;3.00;;;16.50;99.90;;;;;;5019255;28;20205;-94
2022/08/02 12:27:33;;;;;;;4.27;2.80;;;16.60;99.90;;;;;;5018327;28;20233;-93
2022/08/02 12:30:09;;;;;;;3.67;2.80;;;16.60;99.90;;;;;;5017033;28;20212;-94
2022/08/02 12:32:41;;;;;;;6.03;3.07;;;16.60;99.90;;;;;;5017560;28;20259;-93
2022/08/02 12:35:16;;;;;;;4.97;3.07;;;16.50;99.90;;;;;;5018124;28;20264;-94
2022/08/02 12:37:56;;;;;;;5.17;3.03;;;16.60;99.90;;;;;;5018494;28;20218;-93
2022/08/02 12:40:33;;;;;;;4.50;2.93;;;16.50;99.90;;;;;;5017783;28;20263;-94
2022/08/02 12:43:07;;;;;;;6.60;3.00;;;16.60;99.90;;;;;;5025925;28;20197;-94
2022/08/02 12:45:48;;;;;;;4.40;3.20;;;16.50;99.90;;;;;;5037091;28;20273;-93
2022/08/02 12:48:33;;;;;;;5.77;3.57;;;16.50;99.90;;;;;;5036537;28;20197;-93
2022/08/02 12:51:22;;;;;;;5.40;3.40;;;16.50;99.90;;;;;;5033781;28;20223;-94
2022/08/02 12:53:56;;;;;;;5.93;3.27;;;16.30;99.90;;;;;;5009452;28;20256;-95
2022/08/02 12:56:33;;;;;;;6.37;3.20;;;16.40;99.90;;;;;;5017192;28;20237;-94
2022/08/02 12:59:05;;;;;;;4.77;3.27;;;16.40;99.90;;;;;;5017320;28;20225;-94
2022/08/02 13:01:36;;;;;;;4.90;3.17;;;16.30;99.90;;;;;;5014512;28;20225;-93
2022/08/02 13:04:08;;;;;;;4.57;3.07;;;16.30;99.90;;;;;;5009405;28;20209;-94
2022/08/02 13:06:45;;;;;;;8.37;3.43;;;16.30;99.90;;;;;;5000802;28;20214;-94
2022/08/02 13:09:18;;;;;;;5.67;3.30;;;16.30;99.90;;;;;;5003768;28;20214;-94
2022/08/02 13:11:59;;;;;;;6.23;3.13;;;16.30;99.90;;;;;;5007412;28;20201;-94
2022/08/02 13:14:32;;;;;;;4.10;2.80;;;16.40;99.90;;;;;;5017190;28;20216;-95
2022/08/02 13:17:11;;;;;;;5.43;3.40;;;16.40;99.90;;;;;;5036476;28;20217;-94
2022/08/02 13:19:42;;;;;;;8.03;3.33;;;16.30;99.90;;;;;;5037211;28;20240;-95
2022/08/02 13:22:20;;;;;;;4.50;2.93;;;16.10;99.90;;;;;;5026445;28;20236;-93
2022/08/02 13:24:52;;;;;;;6.97;3.53;;;16.00;99.90;;;;;;5019506;28;20659;-95
2022/08/02 13:27:28;;;;;;;6.50;3.23;;;16.00;99.90;;;;;;5026454;28;20236;-95
2022/08/02 13:30:01;;;;;;;6.17;3.30;;;16.10;99.90;;;;;;5036886;28;20230;-94
2022/08/02 13:32:33;;;;;;;5.73;3.73;;;16.10;99.90;;;;;;5036116;28;20273;-95
2022/08/02 13:35:05;;;;;;;3.93;2.57;;;16.10;99.90;;;;;;5036273;28;20216;-94
2022/08/02 13:37:47;;;;;;;8.20;3.63;;;16.00;99.90;;;;;;5036083;28;20241;-96
2022/08/02 13:40:19;;;;;;;7.73;3.70;;;16.00;99.90;;;;;;5036187;28;20198;-95
2022/08/02 13:42:54;;;;;;;4.43;2.83;;;16.00;99.90;;;;;;5038208;28;20277;-95
2022/08/02 13:45:28;;;;;;;5.43;2.90;;;15.90;99.90;;;;;;5033857;28;20209;-95
2022/08/02 13:47:59;;;;;;;3.70;2.67;;;15.90;99.90;;;;;;5022214;28;20626;-94
2022/08/02 13:50:36;;;;;;;5.43;2.93;;;15.90;99.90;;;;;;5030606;28;20213;-94
2022/08/02 13:53:08;;;;;;;5.17;2.97;;;16.00;99.90;;;;;;5039393;28;20229;-94
2022/08/02 13:55:39;;;;;;;6.17;3.23;;;16.00;99.90;;;;;;5029014;28;20276;-94
2022/08/02 13:58:15;;;;;;;5.77;2.90;;;15.90;99.90;;;;;;5021006;28;20224;-94
2022/08/02 14:00:47;;;;;;;5.80;3.00;;;16.00;99.90;;;;;;5020823;28;20225;-94
2022/08/02 14:03:19;;;;;;;4.87;2.80;;;16.10;99.90;;;;;;5021365;28;20202;-95
2022/08/02 14:05:56;;;;;;;5.23;2.50;;;16.10;99.90;;;;;;5021082;28;20220;-94
2022/08/02 14:08:26;;;;;;;3.97;2.20;;;16.10;99.90;;;;;;5020865;28;20276;-94
2022/08/02 14:10:58;;;;;;;4.17;2.53;;;16.20;99.90;;;;;;5019944;28;20259;-94
2022/08/02 14:13:33;;;;;;;4.77;2.53;;;16.20;99.90;;;;;;5020723;28;20218;-94
2022/08/02 14:16:06;;;;;;;6.00;2.80;;;16.30;99.90;;;;;;5022146;28;20225;-95
2022/08/02 14:18:37;;;;;;;3.83;2.90;;;16.20;99.90;;;;;;5021001;28;20205;-95
2022/08/02 14:21:09;;;;;;;4.43;2.67;;;16.20;99.90;;;;;;5021149;28;20234;-95
2022/08/02 14:23:40;;;;;;;5.90;2.80;;;16.20;99.90;;;;;;5022335;28;20667;-94
2022/08/02 14:26:20;;;;;;;3.40;2.43;;;16.20;99.90;;;;;;5023038;28;20295;-95
2022/08/02 14:28:59;;;;;;;6.77;2.40;;;16.20;99.90;;;;;;5022438;28;20362;-94
2022/08/02 14:31:31;;;;;;;3.70;2.40;;;16.30;99.90;;;;;;5027782;28;20221;-94
2022/08/02 14:36:56;;;;;;;4.70;2.50;;;16.20;99.90;;;;;;5038523;28;20324;-95
2022/08/02 14:39:27;;;;;;;3.83;2.33;;;16.10;99.90;;;;;;5038434;28;20218;-94
2022/08/02 14:42:19;;;;;;;3.47;2.50;;;16.00;99.90;;;;;;5013143;28;20292;-94
2022/08/02 14:44:53;;;;;;;4.77;2.33;;;16.00;99.90;;;;;;5023177;28;20658;-94
2022/08/02 14:47:24;;;;;;;5.00;2.30;;;16.20;99.90;;;;;;5022797;28;20205;-95
2022/08/02 14:52:52;;;;;;;6.73;2.63;;;16.30;99.90;;;;;;5020415;28;20563;-95
2022/08/02 14:58:39;;;;;;;4.70;2.40;;;16.50;99.90;;;;;;5027990;28;20267;-94
2022/08/02 15:01:34;;;;;;;7.53;2.97;;;16.30;99.90;;;;;;5007784;28;20238;-94
2022/08/02 15:04:08;;;;;;;4.60;2.50;;;16.40;99.90;;;;;;5001798;28;20206;-95
2022/08/02 15:06:45;;;;;;;6.87;2.83;;;16.40;99.90;;;;;;5004383;28;20220;-95
2022/08/02 15:09:17;;;;;;;3.63;2.47;;;16.20;99.90;;;;;;5005164;28;20218;-94
2022/08/02 15:14:42;;;;;;;7.87;3.30;;;16.30;99.90;;;;;;5012232;28;20221;-95
2022/08/02 15:17:30;;;;;;;5.60;2.50;;;16.40;99.90;;;;;;5012259;28;20234;-95
2022/08/02 15:23:03;;;;;;;4.97;2.90;;;16.40;99.90;;;;;;5013466;28;20210;-93
2022/08/02 15:35:03;;;;;;;5.27;2.43;;;16.40;99.90;;;;;;5055000;23;20264;-94
2022/08/02 15:37:50;;;;;;;6.03;2.93;;;16.50;99.90;;;;;;5011276;28;20257;-94